createdAt,value
2023-02-24T00:00:31.772Z,24.77
2023-02-24T00:01:31.658Z,24.77
2023-02-24T00:02:31.655Z,24.77
2023-02-24T00:03:31.732Z,24.77
2023-02-24T00:04:31.565Z,24.78
2023-02-24T00:05:31.561Z,24.77
2023-02-24T00:06:31.516Z,24.77
2023-02-24T00:07:31.483Z,24.79
2023-02-24T00:54:51.012Z,24.79
2023-02-24T00:55:51.923Z,24.81
2023-02-24T00:56:51.890Z,24.79
2023-02-24T00:57:51.920Z,24.81
2023-02-24T00:58:51.822Z,24.81
2023-02-24T00:59:51.902Z,24.82
2023-02-24T01:00:51.751Z,24.79
2023-02-24T01:01:51.767Z,24.79
2023-02-24T01:02:51.680Z,24.79
2023-02-24T01:03:51.728Z,24.79
2023-02-24T01:04:51.600Z,24.79
2023-02-24T01:05:51.556Z,24.79
2023-02-24T01:06:51.524Z,24.79
2023-02-24T01:07:51.480Z,24.79
2023-02-24T01:08:51.437Z,24.78
2023-02-24T01:09:51.388Z,24.79
2023-02-24T01:10:51.381Z,24.77
2023-02-24T01:11:51.370Z,24.79
2023-02-24T01:12:51.278Z,24.77
2023-02-24T01:13:51.245Z,24.78
2023-02-24T01:14:51.217Z,24.77
2023-02-24T01:15:51.257Z,24.78
2023-02-24T01:16:51.171Z,24.78
2023-02-24T01:17:51.152Z,24.77
2023-02-24T01:18:51.114Z,24.77
2023-02-24T01:19:51.063Z,24.77
2023-02-24T01:20:51.020Z,24.77
2023-02-24T01:21:50.987Z,24.77
2023-02-24T01:22:50.958Z,24.77
2023-02-24T01:23:50.927Z,24.78
2023-02-24T01:24:50.904Z,24.77
2023-02-24T01:25:50.873Z,24.78
2023-02-24T01:26:50.861Z,24.77
2023-02-24T01:27:50.931Z,24.78
2023-02-24T01:28:50.774Z,24.77
2023-02-24T01:29:50.735Z,24.79
2023-02-24T01:30:50.747Z,24.77
2023-02-24T01:31:50.917Z,24.78
2023-02-24T01:32:50.869Z,24.75
2023-02-24T01:33:50.573Z,24.78
2023-02-24T01:34:50.541Z,24.75
2023-02-24T01:35:50.508Z,24.77
2023-02-24T01:36:50.469Z,24.78
2023-02-24T01:37:50.433Z,24.77
2023-02-24T01:38:50.394Z,24.77
2023-02-24T01:39:50.353Z,24.77
2023-02-24T01:40:50.310Z,24.75
2023-02-24T01:41:50.271Z,24.77
2023-02-24T01:42:50.265Z,24.77
2023-02-24T01:43:50.193Z,24.75
2023-02-24T01:44:50.158Z,24.77
2023-02-24T01:45:50.115Z,24.78
2023-02-24T01:46:50.152Z,24.78
2023-02-24T01:47:50.049Z,24.77
2023-02-24T01:48:50.001Z,24.75
2023-02-24T01:49:49.972Z,24.78
2023-02-24T01:50:49.907Z,24.78
2023-02-24T01:51:49.875Z,24.77
2023-02-24T01:52:49.844Z,24.75
2023-02-24T01:53:49.803Z,24.78
2023-02-24T01:54:49.779Z,24.78
2023-02-24T01:55:49.732Z,24.77
2023-02-24T01:56:49.765Z,24.77
2023-02-24T01:57:49.641Z,24.75
2023-02-24T01:58:49.632Z,24.77
2023-02-24T01:59:49.572Z,24.77
2023-02-24T02:00:49.540Z,24.77
2023-02-24T02:01:49.611Z,24.77
2023-02-24T02:02:49.532Z,24.77
2023-02-24T02:03:49.434Z,24.77
2023-02-24T02:04:49.395Z,24.77
2023-02-24T02:05:49.361Z,24.75
2023-02-24T02:06:49.328Z,24.75
2023-02-24T02:07:49.282Z,24.77
2023-02-24T02:08:49.239Z,24.78
2023-02-24T02:09:49.229Z,24.77
2023-02-24T02:10:49.164Z,24.75
2023-02-24T02:11:49.166Z,24.78
2023-02-24T02:12:49.089Z,24.78
2023-02-24T02:13:49.074Z,24.78
2023-02-24T02:14:49.040Z,24.77
2023-02-24T02:15:49.100Z,24.75
2023-02-24T02:16:48.940Z,24.75
2023-02-24T02:17:48.893Z,24.77
2023-02-24T02:18:48.856Z,24.77
2023-02-24T02:19:48.807Z,24.77
2023-02-24T02:20:48.762Z,24.78
2023-02-24T02:21:48.730Z,24.75
2023-02-24T02:22:48.675Z,24.75
2023-02-24T02:23:48.620Z,24.75
2023-02-24T02:24:48.587Z,24.75
2023-02-24T02:25:48.535Z,24.78
2023-02-24T02:26:48.496Z,24.77
2023-02-24T02:27:48.457Z,24.75
2023-02-24T02:28:48.422Z,24.75
2023-02-24T02:29:48.383Z,24.77
2023-02-24T02:30:48.424Z,24.75
2023-02-24T02:31:48.374Z,24.75
2023-02-24T02:32:48.321Z,24.78
2023-02-24T02:33:48.194Z,24.75
2023-02-24T02:34:48.154Z,24.77
2023-02-24T02:35:48.118Z,24.75
2023-02-24T02:36:48.090Z,24.77
2023-02-24T02:37:48.049Z,24.77
2023-02-24T02:38:48.016Z,24.77
2023-02-24T02:39:47.996Z,24.77
2023-02-24T02:40:47.955Z,24.79
2023-02-24T02:41:47.911Z,24.77
2023-02-24T02:42:47.880Z,24.78
2023-02-24T02:43:47.841Z,24.75
2023-02-24T02:44:47.822Z,24.77
2023-02-24T02:45:48.021Z,24.77
2023-02-24T02:46:47.742Z,24.78
2023-02-24T02:47:47.681Z,24.78
2023-02-24T02:48:47.646Z,24.78
2023-02-24T02:49:47.606Z,24.77
2023-02-24T02:50:47.567Z,24.75
2023-02-24T02:51:47.544Z,24.78
2023-02-24T02:52:47.512Z,24.77
2023-02-24T02:53:47.477Z,24.74
2023-02-24T02:54:47.427Z,24.75
2023-02-24T02:55:47.390Z,24.79
2023-02-24T02:56:47.353Z,24.77
2023-02-24T02:57:47.303Z,24.75
2023-02-24T02:58:47.288Z,24.78
2023-02-24T02:59:47.208Z,24.75
2023-02-24T03:00:47.195Z,24.78
2023-02-24T03:01:47.160Z,24.75
2023-02-24T03:02:47.142Z,24.75
2023-02-24T03:03:47.577Z,24.77
2023-02-24T03:04:47.131Z,24.74
2023-02-24T03:05:47.121Z,24.75
2023-02-24T03:06:46.950Z,24.75
2023-02-24T03:07:46.905Z,24.75
2023-02-24T03:08:46.880Z,24.77
2023-02-24T03:09:46.827Z,24.75
2023-02-24T03:10:46.783Z,24.75
2023-02-24T03:11:46.747Z,24.77
2023-02-24T03:12:46.705Z,24.78
2023-02-24T03:13:46.682Z,24.75
2023-02-24T03:14:46.637Z,24.77
2023-02-24T03:15:46.609Z,24.77
2023-02-24T03:16:46.614Z,24.74
2023-02-24T03:17:46.548Z,24.74
2023-02-24T03:18:46.521Z,24.77
2023-02-24T03:19:46.489Z,24.75
2023-02-24T03:20:46.426Z,24.81
2023-02-24T03:21:46.384Z,24.77
2023-02-24T03:22:46.330Z,24.75
2023-02-24T03:23:46.296Z,24.78
2023-02-24T03:24:46.252Z,24.77
2023-02-24T03:25:46.214Z,24.77
2023-02-24T03:26:46.179Z,24.77
2023-02-24T03:27:46.125Z,24.77
2023-02-24T03:28:46.083Z,24.77
2023-02-24T03:29:46.046Z,24.78
2023-02-24T03:30:46.071Z,24.77
2023-02-24T03:31:46.079Z,24.75
2023-02-24T03:32:46.059Z,24.77
2023-02-24T03:33:45.885Z,24.77
2023-02-24T03:34:45.865Z,24.78
2023-02-24T03:35:45.797Z,24.74
2023-02-24T03:36:45.757Z,24.78
2023-02-24T03:37:45.721Z,24.77
2023-02-24T03:38:45.673Z,24.75
2023-02-24T03:39:45.631Z,24.75
2023-02-24T03:40:45.578Z,24.78
2023-02-24T03:41:45.545Z,24.78
2023-02-24T03:42:45.512Z,24.78
2023-02-24T03:43:45.476Z,24.77
2023-02-24T03:44:45.424Z,24.77
2023-02-24T03:45:45.438Z,24.75
2023-02-24T03:46:45.356Z,24.75
2023-02-24T03:47:45.286Z,24.75
2023-02-24T03:48:45.237Z,24.75
2023-02-24T03:49:45.191Z,24.75
2023-02-24T03:50:45.180Z,24.75
2023-02-24T03:51:45.116Z,24.75
2023-02-24T03:52:45.079Z,24.75
2023-02-24T03:53:45.058Z,24.75
2023-02-24T03:54:45.008Z,24.77
2023-02-24T03:55:44.977Z,24.75
2023-02-24T03:56:44.933Z,24.77
2023-02-24T03:57:44.901Z,24.77
2023-02-24T03:58:44.872Z,24.74
2023-02-24T03:59:44.862Z,24.77
2023-02-24T04:00:44.806Z,24.77
2023-02-24T04:01:44.757Z,24.78
2023-02-24T04:02:44.780Z,24.77
2023-02-24T04:03:44.687Z,24.74
2023-02-24T04:04:44.700Z,24.75
2023-02-24T04:05:44.608Z,24.77
2023-02-24T04:06:44.595Z,24.77
2023-02-24T04:07:44.532Z,24.78
2023-02-24T04:08:44.485Z,24.77
2023-02-24T04:09:44.451Z,24.75
2023-02-24T04:10:44.425Z,24.75
2023-02-24T04:11:44.387Z,24.77
2023-02-24T04:12:44.409Z,24.77
2023-02-24T04:13:44.298Z,24.74
2023-02-24T04:14:44.260Z,24.72
2023-02-24T04:15:44.279Z,24.77
2023-02-24T04:16:44.204Z,24.75
2023-02-24T04:17:44.172Z,24.78
2023-02-24T04:18:44.130Z,24.75
2023-02-24T04:19:44.105Z,24.75
2023-02-24T04:20:44.058Z,24.77
2023-02-24T04:21:44.033Z,24.74
2023-02-24T04:22:44.019Z,24.77
2023-02-24T04:23:43.958Z,24.75
2023-02-24T04:24:43.927Z,24.75
2023-02-24T04:25:43.888Z,24.78
2023-02-24T04:26:43.856Z,24.75
2023-02-24T04:27:43.818Z,24.75
2023-02-24T04:28:43.779Z,24.79
2023-02-24T04:29:43.747Z,24.75
2023-02-24T04:30:43.841Z,24.75
2023-02-24T04:31:43.946Z,24.78
2023-02-24T04:32:43.696Z,24.77
2023-02-24T04:33:43.604Z,24.78
2023-02-24T04:34:43.566Z,24.77
2023-02-24T04:35:43.516Z,24.77
2023-02-24T04:36:43.497Z,24.77
2023-02-24T04:37:43.441Z,24.75
2023-02-24T04:38:43.426Z,24.75
2023-02-24T04:39:43.366Z,24.78
2023-02-24T04:40:43.329Z,24.77
2023-02-24T04:41:43.302Z,24.79
2023-02-24T04:42:43.269Z,24.75
2023-02-24T04:43:43.231Z,24.77
2023-02-24T04:44:43.206Z,24.74
2023-02-24T04:45:43.154Z,24.77
2023-02-24T04:46:43.147Z,24.77
2023-02-24T04:47:43.102Z,24.74
2023-02-24T04:48:43.069Z,24.75
2023-02-24T04:49:43.018Z,24.77
2023-02-24T04:50:42.988Z,24.74
2023-02-24T04:51:42.949Z,24.77
2023-02-24T04:52:42.964Z,24.77
2023-02-24T04:53:42.880Z,24.75
2023-02-24T04:54:42.873Z,24.74
2023-02-24T04:55:42.799Z,24.77
2023-02-24T04:56:42.765Z,24.77
2023-02-24T04:57:42.735Z,24.77
2023-02-24T04:58:42.697Z,24.75
2023-02-24T04:59:42.646Z,24.74
2023-02-24T05:00:42.639Z,24.75
2023-02-24T05:01:42.566Z,24.75
2023-02-24T05:02:42.537Z,24.74
2023-02-24T05:03:42.769Z,24.77
2023-02-24T05:04:42.491Z,24.75
2023-02-24T05:05:42.426Z,24.77
2023-02-24T05:06:42.387Z,24.78
2023-02-24T05:07:42.359Z,24.75
2023-02-24T05:08:42.320Z,24.74
2023-02-24T05:09:42.265Z,24.78
2023-02-24T05:10:42.252Z,24.74
2023-02-24T05:11:42.157Z,24.72
2023-02-24T05:12:42.137Z,24.75
2023-02-24T05:13:42.098Z,24.75
2023-02-24T05:14:42.064Z,24.77
2023-02-24T05:15:42.178Z,24.75
2023-02-24T05:16:41.988Z,24.75
2023-02-24T05:17:41.944Z,24.72
2023-02-24T05:18:41.912Z,24.74
2023-02-24T05:19:41.880Z,24.72
2023-02-24T05:20:42.022Z,24.74
2023-02-24T05:21:41.857Z,24.72
2023-02-24T05:22:41.771Z,24.75
2023-02-24T05:23:41.739Z,24.72
2023-02-24T05:24:41.695Z,24.75
2023-02-24T05:25:41.662Z,24.74
2023-02-24T05:26:41.842Z,24.77
2023-02-24T05:27:41.585Z,24.78
2023-02-24T05:28:41.541Z,24.75
2023-02-24T05:29:41.498Z,24.75
2023-02-24T05:30:41.503Z,24.72
2023-02-24T05:31:41.701Z,24.75
2023-02-24T05:32:41.451Z,24.75
2023-02-24T05:33:41.342Z,24.77
2023-02-24T05:34:41.306Z,24.75
2023-02-24T05:35:41.271Z,24.74
2023-02-24T05:36:41.249Z,24.72
2023-02-24T05:37:41.202Z,24.75
2023-02-24T05:38:41.204Z,24.74
2023-02-24T05:39:41.134Z,24.74
2023-02-24T05:40:41.112Z,24.72
2023-02-24T05:41:41.070Z,24.72
2023-02-24T05:42:41.047Z,24.72
2023-02-24T05:43:40.991Z,24.75
2023-02-24T05:44:40.950Z,24.72
2023-02-24T05:45:40.907Z,24.75
2023-02-24T05:46:40.958Z,24.72
2023-02-24T05:47:40.830Z,24.71
2023-02-24T05:48:40.801Z,24.72
2023-02-24T05:49:40.771Z,24.74
2023-02-24T05:50:40.721Z,24.71
2023-02-24T05:51:40.683Z,24.72
2023-02-24T05:52:40.649Z,24.72
2023-02-24T05:53:40.612Z,24.74
2023-02-24T05:54:40.630Z,24.72
2023-02-24T05:55:40.522Z,24.72
2023-02-24T05:56:40.484Z,24.71
2023-02-24T05:57:40.444Z,24.72
2023-02-24T05:58:40.442Z,24.72
2023-02-24T05:59:40.392Z,24.74
2023-02-24T06:00:40.348Z,24.74
2023-02-24T06:01:40.324Z,24.74
2023-02-24T06:02:40.304Z,24.74
2023-02-24T06:03:40.228Z,24.72
2023-02-24T06:04:40.196Z,24.74
2023-02-24T06:05:40.168Z,24.72
2023-02-24T06:06:40.107Z,24.72
2023-02-24T06:07:40.083Z,24.71
2023-02-24T06:08:40.058Z,24.75
2023-02-24T06:09:39.986Z,24.74
2023-02-24T06:10:39.949Z,24.74
2023-02-24T06:11:39.984Z,24.71
2023-02-24T06:12:39.912Z,24.74
2023-02-24T06:13:39.842Z,24.72
2023-02-24T06:14:39.832Z,24.74
2023-02-24T06:15:39.771Z,24.75
2023-02-24T06:16:39.821Z,24.74
2023-02-24T06:17:39.691Z,24.74
2023-02-24T06:18:39.647Z,24.72
2023-02-24T06:19:39.668Z,24.75
2023-02-24T06:20:39.563Z,24.75
2023-02-24T06:21:39.519Z,24.74
2023-02-24T06:22:39.656Z,24.77
2023-02-24T06:23:39.439Z,24.78
2023-02-24T06:24:39.665Z,24.77
2023-02-24T06:25:39.379Z,24.78
2023-02-24T06:26:39.329Z,24.77
2023-02-24T06:27:39.285Z,24.78
2023-02-24T06:28:39.251Z,24.81
2023-02-24T06:29:39.664Z,24.81
2023-02-24T06:30:39.216Z,24.81
2023-02-24T06:31:39.233Z,24.83
2023-02-24T06:32:39.179Z,24.85
2023-02-24T06:33:39.064Z,24.83
2023-02-24T06:34:39.160Z,24.85
2023-02-24T06:35:39.005Z,24.86
2023-02-24T06:36:38.926Z,24.88
2023-02-24T06:37:38.888Z,24.86
2023-02-24T06:38:38.854Z,24.88
2023-02-24T06:39:38.820Z,24.86
2023-02-24T06:40:38.816Z,24.88
2023-02-24T06:41:38.754Z,24.88
2023-02-24T06:42:39.220Z,24.89
2023-02-24T06:43:38.720Z,24.89
2023-02-24T06:44:38.657Z,24.93
2023-02-24T06:45:38.763Z,24.92
2023-02-24T06:46:38.616Z,24.95
2023-02-24T06:47:38.791Z,24.95
2023-02-24T06:48:38.515Z,24.95
2023-02-24T06:49:38.456Z,24.96
2023-02-24T06:50:39.619Z,24.97
2023-02-24T06:51:38.360Z,24.96
2023-02-24T06:52:38.357Z,24.99
2023-02-24T06:53:38.706Z,24.99
2023-02-24T06:54:38.754Z,24.97
2023-02-24T06:55:38.728Z,25.02
2023-02-24T06:56:38.166Z,25.05
2023-02-24T06:57:38.105Z,25.03
2023-02-24T06:58:38.089Z,25.07
2023-02-24T06:59:38.186Z,25.07
2023-02-24T07:00:38.208Z,25.10
2023-02-24T07:01:38.101Z,25.13
2023-02-24T07:02:38.924Z,25.17
2023-02-24T07:03:37.840Z,25.14
2023-02-24T07:04:41.105Z,25.17
2023-02-24T07:05:38.208Z,25.23
2023-02-24T07:06:37.710Z,25.26
2023-02-24T07:07:37.676Z,25.29
2023-02-24T07:08:37.631Z,25.31
2023-02-24T07:09:37.587Z,25.31
2023-02-24T07:10:37.719Z,25.31
2023-02-24T07:11:38.490Z,25.33
2023-02-24T07:12:37.446Z,25.31
2023-02-24T07:13:37.378Z,25.37
2023-02-24T07:14:37.340Z,25.40
2023-02-24T07:15:37.275Z,25.36
2023-02-24T07:16:37.263Z,25.42
2023-02-24T07:17:37.170Z,25.38
2023-02-24T07:18:38.132Z,25.40
2023-02-24T07:19:37.085Z,25.40
2023-02-24T07:20:37.010Z,25.40
2023-02-24T07:21:36.948Z,25.42
2023-02-24T07:22:36.892Z,25.42
2023-02-24T07:23:36.803Z,25.47
2023-02-24T07:24:37.193Z,25.44
2023-02-24T07:25:37.232Z,25.48
2023-02-24T07:26:37.192Z,25.52
2023-02-24T07:27:36.717Z,25.52
2023-02-24T07:28:36.624Z,25.52
2023-02-24T07:29:36.551Z,25.55
2023-02-24T07:30:36.538Z,25.55
2023-02-24T07:31:36.637Z,25.55
2023-02-24T07:32:36.727Z,25.58
2023-02-24T07:33:36.315Z,25.57
2023-02-24T07:34:36.289Z,25.54
2023-02-24T07:35:36.705Z,25.52
2023-02-24T07:36:36.155Z,25.58
2023-02-24T07:37:36.100Z,25.55
2023-02-24T07:38:36.034Z,25.57
2023-02-24T07:39:36.011Z,25.57
2023-02-24T07:40:36.961Z,25.58
2023-02-24T07:41:36.253Z,25.60
2023-02-24T07:42:35.876Z,25.57
2023-02-24T07:43:35.824Z,25.52
2023-02-24T07:44:35.743Z,25.57
2023-02-24T07:45:35.742Z,25.52
2023-02-24T07:46:35.832Z,25.52
2023-02-24T07:47:35.788Z,25.57
2023-02-24T07:48:35.592Z,25.49
2023-02-24T07:49:35.570Z,25.51
2023-02-24T07:50:36.236Z,25.55
2023-02-24T07:51:35.422Z,25.54
2023-02-24T07:52:35.440Z,25.55
2023-02-24T07:53:35.316Z,25.54
2023-02-24T07:54:35.263Z,25.52
2023-02-24T07:55:35.211Z,25.52
2023-02-24T07:56:35.153Z,25.55
2023-02-24T07:57:35.102Z,25.52
2023-02-24T07:58:35.213Z,25.54
2023-02-24T07:59:35.000Z,25.54
2023-02-24T08:00:34.920Z,25.58
2023-02-24T08:01:34.866Z,25.60
2023-02-24T08:02:34.881Z,25.62
2023-02-24T08:03:35.195Z,25.60
2023-02-24T08:04:34.722Z,25.61
2023-02-24T08:05:34.706Z,25.65
2023-02-24T08:06:34.648Z,25.66
2023-02-24T08:07:34.565Z,25.66
2023-02-24T08:08:34.521Z,25.71
2023-02-24T08:09:34.476Z,25.66
2023-02-24T08:10:34.424Z,25.71
2023-02-24T08:11:34.424Z,25.71
2023-02-24T08:12:34.322Z,25.72
2023-02-24T08:13:34.272Z,25.75
2023-02-24T08:14:34.298Z,25.73
2023-02-24T08:15:34.703Z,25.75
2023-02-24T08:16:34.206Z,25.76
2023-02-24T08:17:34.210Z,25.76
2023-02-24T08:18:34.250Z,25.79
2023-02-24T08:19:34.336Z,25.78
2023-02-24T08:20:33.920Z,25.80
2023-02-24T08:21:33.888Z,25.78
2023-02-24T08:22:33.943Z,25.79
2023-02-24T08:23:34.074Z,25.79
2023-02-24T08:24:33.716Z,25.78
2023-02-24T08:25:34.078Z,25.80
2023-02-24T08:26:33.702Z,25.78
2023-02-24T08:27:33.842Z,25.79
2023-02-24T08:28:33.473Z,25.82
2023-02-24T08:29:33.409Z,25.83
2023-02-24T08:30:33.732Z,25.82
2023-02-24T08:31:33.455Z,25.82
2023-02-24T08:32:33.400Z,25.79
2023-02-24T08:33:33.189Z,25.80
2023-02-24T08:34:33.121Z,25.79
2023-02-24T08:35:33.222Z,25.83
2023-02-24T08:36:34.197Z,25.83
2023-02-24T08:37:32.964Z,25.85
2023-02-24T08:38:32.925Z,25.86
2023-02-24T08:39:32.888Z,25.86
2023-02-24T08:40:33.211Z,25.86
2023-02-24T08:41:33.206Z,25.88
2023-02-24T08:42:32.711Z,25.88
2023-02-24T08:43:33.026Z,25.85
2023-02-24T08:44:32.587Z,25.82
2023-02-24T08:45:32.558Z,25.82
2023-02-24T08:46:32.927Z,25.80
2023-02-24T08:47:32.733Z,25.83
2023-02-24T08:48:32.398Z,25.82
2023-02-24T08:49:32.322Z,25.80
2023-02-24T08:50:32.264Z,25.82
2023-02-24T08:51:32.211Z,25.82
2023-02-24T08:52:32.502Z,25.83
2023-02-24T08:53:32.120Z,25.83
2023-02-24T08:54:32.226Z,25.83
2023-02-24T08:55:32.228Z,25.83
2023-02-24T08:56:31.927Z,25.82
2023-02-24T08:57:32.236Z,25.82
2023-02-24T08:58:31.866Z,25.80
2023-02-24T08:59:31.809Z,25.82
2023-02-24T09:00:32.351Z,25.82
2023-02-24T09:01:31.673Z,25.82
2023-02-24T09:02:31.720Z,25.82
2023-02-24T09:03:31.559Z,25.79
2023-02-24T09:04:31.587Z,25.79
2023-02-24T09:05:31.460Z,25.76
2023-02-24T09:06:31.415Z,25.76
2023-02-24T09:07:31.371Z,25.76
2023-02-24T09:08:31.314Z,25.76
2023-02-24T09:09:31.271Z,25.75
2023-02-24T09:10:31.240Z,25.73
2023-02-24T09:11:31.142Z,25.75
2023-02-24T09:12:31.089Z,25.76
2023-02-24T09:13:31.035Z,25.78
2023-02-24T09:14:30.984Z,25.73
2023-02-24T09:15:30.926Z,25.73
2023-02-24T09:16:30.954Z,25.72
2023-02-24T09:17:31.234Z,25.72
2023-02-24T09:18:30.833Z,25.73
2023-02-24T09:19:30.708Z,25.72
2023-02-24T09:20:30.646Z,25.73
2023-02-24T09:21:30.593Z,25.78
2023-02-24T09:22:30.780Z,25.78
2023-02-24T09:23:30.733Z,25.82
2023-02-24T09:24:30.449Z,25.78
2023-02-24T09:25:30.413Z,25.71
2023-02-24T09:26:30.375Z,25.65
2023-02-24T09:27:30.303Z,25.54
2023-02-24T09:28:30.292Z,25.42
2023-02-24T09:29:30.208Z,25.31
2023-02-24T09:30:30.235Z,25.27
2023-02-24T09:31:30.268Z,25.21
2023-02-24T09:32:30.240Z,25.24
2023-02-24T09:33:30.282Z,25.26
2023-02-24T09:34:30.141Z,25.27
2023-02-24T09:35:30.016Z,25.31
2023-02-24T09:36:29.971Z,25.33
2023-02-24T09:37:29.932Z,25.36
2023-02-24T09:38:29.886Z,25.40
2023-02-24T09:39:30.239Z,25.42
2023-02-24T09:40:29.801Z,25.42
2023-02-24T09:41:30.623Z,25.47
2023-02-24T09:42:29.743Z,25.47
2023-02-24T09:43:29.668Z,25.51
2023-02-24T09:44:29.607Z,25.49
2023-02-24T09:45:29.642Z,25.55
2023-02-24T09:46:29.911Z,25.57
2023-02-24T09:47:29.466Z,25.60
2023-02-24T09:48:29.424Z,25.61
2023-02-24T09:49:29.378Z,25.62
2023-02-24T09:50:59.048Z,25.66
2023-02-24T09:51:29.294Z,25.71
2023-02-24T09:52:29.885Z,25.72
2023-02-24T09:53:29.189Z,25.75
2023-02-24T09:54:29.141Z,25.73
2023-02-24T09:55:29.089Z,25.72
2023-02-24T09:56:29.043Z,25.75
2023-02-24T09:57:29.068Z,25.76
2023-02-24T09:58:41.800Z,25.76
2023-02-24T09:59:29.242Z,25.79
2023-02-24T10:00:29.148Z,25.76
2023-02-24T10:01:29.933Z,25.80
2023-02-24T10:02:28.857Z,25.83
2023-02-24T10:03:28.740Z,25.80
2023-02-24T10:04:28.747Z,25.82
2023-02-24T10:05:28.629Z,25.82
2023-02-24T10:06:28.959Z,25.83
2023-02-24T10:07:28.732Z,25.82
2023-02-24T10:08:28.523Z,25.83
2023-02-24T10:09:28.743Z,25.80
2023-02-24T10:10:28.510Z,25.80
2023-02-24T10:11:28.750Z,25.83
2023-02-24T10:12:28.753Z,25.83
2023-02-24T10:13:28.712Z,25.85
2023-02-24T10:14:37.903Z,25.88
2023-02-24T10:15:28.219Z,25.85
2023-02-24T10:16:28.655Z,25.85
2023-02-24T10:17:28.000Z,25.85
2023-02-24T10:18:28.276Z,25.80
2023-02-24T10:19:27.912Z,25.82
2023-02-24T10:20:28.298Z,25.82
2023-02-24T10:21:28.226Z,25.82
2023-02-24T10:22:27.749Z,25.83
2023-02-24T10:23:27.691Z,25.80
2023-02-24T10:24:27.757Z,25.82
2023-02-24T10:25:27.566Z,25.80
2023-02-24T10:26:27.759Z,25.82
2023-02-24T10:27:27.470Z,25.83
2023-02-24T10:28:27.430Z,25.83
2023-02-24T10:29:27.372Z,25.85
2023-02-24T10:30:27.440Z,25.85
2023-02-24T10:31:27.895Z,25.90
2023-02-24T10:32:27.418Z,25.92
2023-02-24T10:33:27.203Z,25.93
2023-02-24T10:34:27.271Z,25.93
2023-02-24T10:35:27.050Z,25.97
2023-02-24T10:36:26.996Z,25.97
2023-02-24T10:37:29.043Z,25.99
2023-02-24T10:38:26.892Z,25.97
2023-02-24T10:39:27.264Z,25.97
2023-02-24T10:40:27.263Z,25.99
2023-02-24T10:41:26.730Z,25.96
2023-02-24T10:42:26.692Z,25.96
2023-02-24T10:43:26.705Z,25.96
2023-02-24T10:44:26.769Z,25.93
2023-02-24T10:45:26.550Z,25.93
2023-02-24T10:46:39.961Z,25.93
2023-02-24T10:47:26.470Z,25.92
2023-02-24T10:48:40.763Z,25.92
2023-02-24T10:49:26.766Z,25.92
2023-02-24T10:50:26.764Z,25.89
2023-02-24T10:51:26.297Z,25.90
2023-02-24T10:52:26.266Z,25.89
2023-02-24T10:53:26.239Z,25.89
2023-02-24T10:54:26.161Z,25.86
2023-02-24T10:55:26.113Z,25.88
2023-02-24T10:56:26.278Z,25.88
2023-02-24T10:57:26.009Z,25.85
2023-02-24T10:58:25.981Z,25.88
2023-02-24T10:59:25.948Z,25.86
2023-02-24T11:00:26.269Z,25.82
2023-02-24T11:01:26.320Z,25.83
2023-02-24T11:02:25.938Z,25.85
2023-02-24T11:03:32.644Z,25.82
2023-02-24T11:04:25.694Z,25.85
2023-02-24T11:05:25.769Z,25.83
2023-02-24T11:06:25.629Z,25.83
2023-02-24T11:07:25.575Z,25.83
2023-02-24T11:08:25.508Z,25.80
2023-02-24T11:09:25.468Z,25.82
2023-02-24T11:10:25.874Z,25.83
2023-02-24T11:11:25.416Z,25.80
2023-02-24T11:12:25.346Z,25.80
2023-02-24T11:13:25.305Z,25.80
2023-02-24T11:14:25.260Z,25.83
2023-02-24T11:15:25.365Z,25.80
2023-02-24T11:16:25.259Z,25.80
2023-02-24T11:17:25.151Z,25.82
2023-02-24T11:18:25.338Z,25.79
2023-02-24T11:19:25.056Z,25.82
2023-02-24T11:20:25.004Z,25.64
2023-02-24T11:21:24.952Z,25.71
2023-02-24T11:22:24.914Z,25.72
2023-02-24T11:23:25.281Z,25.69
2023-02-24T11:24:24.824Z,25.71
2023-02-24T11:25:25.277Z,25.72
2023-02-24T11:26:24.741Z,25.71
2023-02-24T11:27:24.716Z,25.72
2023-02-24T11:28:24.661Z,25.72
2023-02-24T11:29:24.788Z,25.69
2023-02-24T11:30:24.613Z,25.71
2023-02-24T11:31:24.957Z,25.72
2023-02-24T11:32:24.702Z,25.71
2023-02-24T11:33:24.477Z,25.71
2023-02-24T11:34:24.808Z,25.73
2023-02-24T11:35:24.406Z,25.73
2023-02-24T11:36:24.350Z,25.71
2023-02-24T11:37:24.317Z,25.61
2023-02-24T11:38:24.277Z,25.51
2023-02-24T11:39:24.248Z,25.38
2023-02-24T11:40:24.220Z,25.34
2023-02-24T11:41:24.543Z,25.27
2023-02-24T11:42:24.169Z,25.23
2023-02-24T11:43:24.143Z,25.20
2023-02-24T11:44:24.100Z,25.19
2023-02-24T11:45:24.079Z,25.16
2023-02-24T11:46:24.347Z,25.17
2023-02-24T11:47:24.044Z,25.16
2023-02-24T11:48:23.962Z,25.16
2023-02-24T11:49:23.922Z,25.17
2023-02-24T11:50:23.910Z,25.19
2023-02-24T11:51:24.213Z,25.20
2023-02-24T11:52:23.840Z,25.21
2023-02-24T11:53:23.790Z,25.21
2023-02-24T11:54:23.743Z,24.19
2023-02-24T11:55:25.738Z,23.82
2023-02-24T11:56:23.806Z,23.13
2023-02-24T11:57:24.260Z,22.71
2023-02-24T11:58:23.787Z,22.74
2023-02-24T11:59:23.899Z,22.14
2023-02-24T12:00:23.628Z,21.88
2023-02-24T12:01:24.315Z,22.00
2023-02-24T12:02:23.667Z,21.77
2023-02-24T12:03:23.622Z,21.60
2023-02-24T12:04:23.646Z,21.52
2023-02-24T12:05:23.710Z,21.79
2023-02-24T12:06:23.667Z,22.00
2023-02-24T12:07:23.617Z,22.22
2023-02-24T12:08:23.613Z,22.45
2023-02-24T12:09:23.620Z,22.66
2023-02-24T12:10:24.347Z,22.87
2023-02-24T12:11:24.213Z,23.09
2023-02-24T12:12:23.535Z,23.27
2023-02-24T12:13:23.493Z,23.46
2023-02-24T12:14:23.495Z,23.63
2023-02-24T12:15:24.376Z,23.80
2023-02-24T12:16:23.594Z,23.95
2023-02-24T12:17:23.432Z,24.09
2023-02-24T12:18:23.387Z,24.19
2023-02-24T12:19:23.865Z,24.31
2023-02-24T12:20:23.599Z,24.43
2023-02-24T12:21:23.701Z,24.50
2023-02-24T12:22:23.226Z,24.57
2023-02-24T12:23:23.264Z,24.63
2023-02-24T12:24:23.113Z,24.70
2023-02-24T12:25:23.089Z,24.77
2023-02-24T12:26:23.096Z,24.81
2023-02-24T12:27:23.015Z,24.89
2023-02-24T12:28:22.967Z,24.93
2023-02-24T12:29:22.939Z,24.95
2023-02-24T12:30:23.248Z,24.99
2023-02-24T12:31:23.585Z,25.03
2023-02-24T12:32:23.451Z,25.05
2023-02-24T12:33:22.786Z,25.07
2023-02-24T12:34:22.754Z,25.10
2023-02-24T12:35:22.700Z,25.13
2023-02-24T12:36:22.667Z,25.14
2023-02-24T12:37:22.631Z,25.17
2023-02-24T12:38:22.615Z,25.17
2023-02-24T12:39:22.529Z,25.19
2023-02-24T12:40:22.499Z,25.20
2023-02-24T12:41:22.990Z,25.21
2023-02-24T12:42:22.403Z,25.21
2023-02-24T12:43:22.352Z,25.23
2023-02-24T12:44:22.318Z,25.26
2023-02-24T12:45:22.305Z,25.27
2023-02-24T12:46:22.313Z,25.29
2023-02-24T12:47:22.217Z,25.27
2023-02-24T12:48:22.166Z,25.26
2023-02-24T12:49:22.130Z,25.30
2023-02-24T12:50:22.085Z,25.31
2023-02-24T12:51:22.407Z,25.30
2023-02-24T12:52:22.301Z,25.30
2023-02-24T12:53:21.973Z,25.31
2023-02-24T12:54:21.940Z,25.31
2023-02-24T12:55:21.898Z,25.31
2023-02-24T12:56:21.832Z,25.33
2023-02-24T12:57:21.792Z,25.30
2023-02-24T12:58:21.763Z,25.31
2023-02-24T12:59:21.795Z,25.33
2023-02-24T13:00:21.678Z,25.31
2023-02-24T13:01:22.090Z,25.31
2023-02-24T13:02:21.702Z,25.33
2023-02-24T13:03:21.562Z,25.31
2023-02-24T13:04:21.522Z,25.31
2023-02-24T13:05:21.491Z,25.33
2023-02-24T13:06:21.444Z,25.31
2023-02-24T13:07:21.408Z,25.31
2023-02-24T13:08:21.368Z,25.29
2023-02-24T13:09:21.323Z,25.29
2023-02-24T13:10:21.309Z,25.31
2023-02-24T13:11:21.647Z,25.33
2023-02-24T13:12:21.184Z,25.31
2023-02-24T13:13:21.314Z,25.31
2023-02-24T13:14:21.096Z,25.30
2023-02-24T13:15:21.038Z,25.29
2023-02-24T13:16:20.995Z,25.30
2023-02-24T13:17:20.920Z,25.31
2023-02-24T13:18:21.315Z,25.31
2023-02-24T13:19:20.858Z,25.33
2023-02-24T13:20:20.867Z,25.31
2023-02-24T13:21:21.191Z,25.31
2023-02-24T13:22:20.724Z,25.30
2023-02-24T13:23:20.694Z,25.29
2023-02-24T13:24:20.639Z,25.29
2023-02-24T13:25:20.610Z,25.31
2023-02-24T13:26:20.594Z,25.30
2023-02-24T13:27:20.532Z,25.33
2023-02-24T13:28:20.480Z,25.31
2023-02-24T13:29:20.820Z,25.33
2023-02-24T13:30:20.403Z,25.30
2023-02-24T13:31:20.728Z,25.30
2023-02-24T13:32:20.492Z,25.31
2023-02-24T13:33:20.267Z,25.30
2023-02-24T13:34:20.224Z,25.31
2023-02-24T13:35:20.183Z,25.31
2023-02-24T13:36:20.149Z,25.31
2023-02-24T13:37:20.109Z,25.31
2023-02-24T13:38:20.065Z,25.31